Hovedside
METAR-TAF:

METAR-TAF

Lufthavner :

Prinsesse Juliana internasjonale lufthavn

Sint Maarten, De nederlandske Antillene

breddegrad: 18-03N, lengdegrad: 063-07W, høyde over havet: 4 m

Gjeldene værobservasjon

Denne rapporten ble laget for 43 minutter siden, klokken 02:00 UTC
Vind 10 kt fra Øst
Temperatur 29°C
Luftfuktighet 70%
Trykk 1015 hPa
Sikt 10 km eller mer
Få skyer i en høyde av 1800 ft

METAR: TNCM 130200Z 09010KT 9999 FEW018 29/23 Q1015

Tid: 22:43 (02:43 UTC)

Varsel

Denne rapporten ble laget for 3 timer og 20 minutter siden, klokken 23:23 UTC
Varsel gyldig fra 13. klokken 00 UTC til 13. klokken 24 UTC
Vind 12 kt fra Øst
Sikt: 10 km
Spredte skyer i en høyde av 1800 ft

TAF: TNCM 122323Z 1300/1324 09012KT P6SM SCT018

Værobservasjoner og værvarsel for over 4000 flyplasser (METAR- og TAF-rapporter).

Tilgjengelige stasjoner er representert av de røde og gule prikkene på kartet.

Hold musepekeren over prikken for å se navnet på stasjonen.

Klikk så for å se værobservasjoner og -varsler.

For å forandre kartet kan du klikke på den grønne knappen med svart kryss for å zoome inn, på den grønne knappen med strek for å zoome ut, eller på de grønne pilene for å se tilstøtende kart.


METAR-TAF: